sensor_id;sensor_type;location;lat;lon;timestamp;temperature;humidity
48162;DHT22;33950;48.154;16.316;2023-05-17T00:00:27;12.60;99.90
48162;DHT22;33950;48.154;16.316;2023-05-17T00:03:13;12.60;99.90
48162;DHT22;33950;48.154;16.316;2023-05-17T00:06:00;12.60;99.90
48162;DHT22;33950;48.154;16.316;2023-05-17T00:08:46;12.60;99.90
48162;DHT22;33950;48.154;16.316;2023-05-17T00:11:32;12.60;99.90
48162;DHT22;33950;48.154;16.316;2023-05-17T00:14:18;12.70;99.90
48162;DHT22;33950;48.154;16.316;2023-05-17T00:17:05;12.70;99.90
48162;DHT22;33950;48.154;16.316;2023-05-17T00:19:51;12.70;99.90
48162;DHT22;33950;48.154;16.316;2023-05-17T00:22:38;12.70;99.90
48162;DHT22;33950;48.154;16.316;2023-05-17T00:25:25;12.70;99.90
48162;DHT22;33950;48.154;16.316;2023-05-17T00:28:11;12.70;99.90
48162;DHT22;33950;48.154;16.316;2023-05-17T00:30:57;12.60;99.90
48162;DHT22;33950;48.154;16.316;2023-05-17T00:33:43;12.60;99.90
48162;DHT22;33950;48.154;16.316;2023-05-17T00:36:31;12.60;99.90
48162;DHT22;33950;48.154;16.316;2023-05-17T00:39:18;12.50;99.90
48162;DHT22;33950;48.154;16.316;2023-05-17T00:42:05;12.70;99.90
48162;DHT22;33950;48.154;16.316;2023-05-17T00:44:51;12.40;99.90
48162;DHT22;33950;48.154;16.316;2023-05-17T00:47:37;12.40;99.90
48162;DHT22;33950;48.154;16.316;2023-05-17T00:50:24;12.60;99.90
48162;DHT22;33950;48.154;16.316;2023-05-17T00:53:11;12.30;99.90
48162;DHT22;33950;48.154;16.316;2023-05-17T00:56:02;12.40;99.90
48162;DHT22;33950;48.154;16.316;2023-05-17T00:58:48;12.30;99.90
48162;DHT22;33950;48.154;16.316;2023-05-17T01:01:36;12.30;99.90
48162;DHT22;33950;48.154;16.316;2023-05-17T01:04:23;12.30;99.90
48162;DHT22;33950;48.154;16.316;2023-05-17T01:07:12;12.30;99.90
48162;DHT22;33950;48.154;16.316;2023-05-17T01:09:58;12.20;99.90
48162;DHT22;33950;48.154;16.316;2023-05-17T01:12:54;12.10;99.90
48162;DHT22;33950;48.154;16.316;2023-05-17T01:15:45;11.90;99.90
48162;DHT22;33950;48.154;16.316;2023-05-17T01:18:37;11.90;99.90
48162;DHT22;33950;48.154;16.316;2023-05-17T01:21:29;12.00;99.90
48162;DHT22;33950;48.154;16.316;2023-05-17T01:24:24;12.00;99.90
48162;DHT22;33950;48.154;16.316;2023-05-17T01:27:13;12.00;99.90
48162;DHT22;33950;48.154;16.316;2023-05-17T01:30:01;11.90;99.90
48162;DHT22;33950;48.154;16.316;2023-05-17T01:32:47;12.00;99.90
48162;DHT22;33950;48.154;16.316;2023-05-17T01:35:33;12.00;99.90
48162;DHT22;33950;48.154;16.316;2023-05-17T01:38:20;11.90;99.90
48162;DHT22;33950;48.154;16.316;2023-05-17T01:41:12;11.90;99.90
48162;DHT22;33950;48.154;16.316;2023-05-17T01:44:07;11.90;99.90
48162;DHT22;33950;48.154;16.316;2023-05-17T01:47:01;11.90;99.90
48162;DHT22;33950;48.154;16.316;2023-05-17T01:49:52;11.80;99.90
48162;DHT22;33950;48.154;16.316;2023-05-17T01:52:47;11.70;99.90
48162;DHT22;33950;48.154;16.316;2023-05-17T01:55:40;11.60;99.90
48162;DHT22;33950;48.154;16.316;2023-05-17T01:58:28;11.60;99.90
48162;DHT22;33950;48.154;16.316;2023-05-17T02:01:18;11.70;99.90
48162;DHT22;33950;48.154;16.316;2023-05-17T02:04:06;11.70;99.90
48162;DHT22;33950;48.154;16.316;2023-05-17T02:06:52;11.60;99.90
48162;DHT22;33950;48.154;16.316;2023-05-17T02:09:38;11.60;99.90
48162;DHT22;33950;48.154;16.316;2023-05-17T02:12:24;11.50;99.90
48162;DHT22;33950;48.154;16.316;2023-05-17T02:15:10;11.50;99.90
48162;DHT22;33950;48.154;16.316;2023-05-17T02:17:59;11.40;99.90
48162;DHT22;33950;48.154;16.316;2023-05-17T02:20:45;11.40;99.90
48162;DHT22;33950;48.154;16.316;2023-05-17T02:23:31;11.30;99.90
48162;DHT22;33950;48.154;16.316;2023-05-17T02:26:18;11.40;99.90
48162;DHT22;33950;48.154;16.316;2023-05-17T02:29:04;11.30;99.90
48162;DHT22;33950;48.154;16.316;2023-05-17T02:31:50;11.20;99.90
48162;DHT22;33950;48.154;16.316;2023-05-17T02:34:37;11.30;99.90
48162;DHT22;33950;48.154;16.316;2023-05-17T02:37:23;11.30;99.90
48162;DHT22;33950;48.154;16.316;2023-05-17T02:40:10;11.20;99.90
48162;DHT22;33950;48.154;16.316;2023-05-17T02:42:56;11.20;99.90
48162;DHT22;33950;48.154;16.316;2023-05-17T02:45:42;11.20;99.90
48162;DHT22;33950;48.154;16.316;2023-05-17T02:48:29;11.10;99.90
48162;DHT22;33950;48.154;16.316;2023-05-17T02:51:17;11.10;99.90
48162;DHT22;33950;48.154;16.316;2023-05-17T02:54:03;11.10;99.90
48162;DHT22;33950;48.154;16.316;2023-05-17T02:56:49;11.10;99.90
48162;DHT22;33950;48.154;16.316;2023-05-17T03:02:01;11.00;99.90
48162;DHT22;33950;48.154;16.316;2023-05-17T03:04:47;11.00;99.90
48162;DHT22;33950;48.154;16.316;2023-05-17T03:07:35;11.10;99.90
48162;DHT22;33950;48.154;16.316;2023-05-17T03:10:21;11.10;99.90
48162;DHT22;33950;48.154;16.316;2023-05-17T03:13:08;11.10;99.90
48162;DHT22;33950;48.154;16.316;2023-05-17T03:18:40;11.00;99.90
48162;DHT22;33950;48.154;16.316;2023-05-17T03:21:26;11.10;99.90
48162;DHT22;33950;48.154;16.316;2023-05-17T03:24:14;11.00;99.90
48162;DHT22;33950;48.154;16.316;2023-05-17T03:27:00;11.00;99.90
48162;DHT22;33950;48.154;16.316;2023-05-17T03:29:46;10.90;99.90
48162;DHT22;33950;48.154;16.316;2023-05-17T03:32:32;10.90;99.90
48162;DHT22;33950;48.154;16.316;2023-05-17T03:35:18;10.90;99.90
48162;DHT22;33950;48.154;16.316;2023-05-17T03:38:04;11.00;99.90
48162;DHT22;33950;48.154;16.316;2023-05-17T03:40:52;10.90;99.90
48162;DHT22;33950;48.154;16.316;2023-05-17T03:43:38;10.90;99.90
48162;DHT22;33950;48.154;16.316;2023-05-17T03:46:24;10.80;99.90
48162;DHT22;33950;48.154;16.316;2023-05-17T03:49:10;10.80;99.90
48162;DHT22;33950;48.154;16.316;2023-05-17T03:51:56;10.80;99.90
48162;DHT22;33950;48.154;16.316;2023-05-17T03:54:42;10.60;99.90
48162;DHT22;33950;48.154;16.316;2023-05-17T03:57:30;9.80;99.90
48162;DHT22;33950;48.154;16.316;2023-05-17T04:00:16;10.50;99.90
48162;DHT22;33950;48.154;16.316;2023-05-17T04:03:06;10.60;99.90
48162;DHT22;33950;48.154;16.316;2023-05-17T04:05:53;10.60;99.90
48162;DHT22;33950;48.154;16.316;2023-05-17T04:08:39;10.60;99.90
48162;DHT22;33950;48.154;16.316;2023-05-17T04:11:26;10.60;99.90
48162;DHT22;33950;48.154;16.316;2023-05-17T04:14:14;10.40;99.90
48162;DHT22;33950;48.154;16.316;2023-05-17T04:17:00;10.40;99.90
48162;DHT22;33950;48.154;16.316;2023-05-17T04:19:46;10.40;99.90
48162;DHT22;33950;48.154;16.316;2023-05-17T04:22:32;10.40;99.90
48162;DHT22;33950;48.154;16.316;2023-05-17T04:25:18;10.50;99.90
48162;DHT22;33950;48.154;16.316;2023-05-17T04:28:04;10.40;99.90
48162;DHT22;33950;48.154;16.316;2023-05-17T04:30:52;10.40;99.90
48162;DHT22;33950;48.154;16.316;2023-05-17T04:33:38;10.40;99.90
48162;DHT22;33950;48.154;16.316;2023-05-17T04:36:25;10.40;99.90
48162;DHT22;33950;48.154;16.316;2023-05-17T04:39:11;10.20;99.90
48162;DHT22;33950;48.154;16.316;2023-05-17T04:41:57;10.20;99.90
48162;DHT22;33950;48.154;16.316;2023-05-17T04:44:43;10.20;99.90
48162;DHT22;33950;48.154;16.316;2023-05-17T04:47:31;10.30;99.90
48162;DHT22;33950;48.154;16.316;2023-05-17T04:50:17;10.20;99.90
48162;DHT22;33950;48.154;16.316;2023-05-17T04:53:03;10.20;99.90
48162;DHT22;33950;48.154;16.316;2023-05-17T04:55:50;10.10;99.90
48162;DHT22;33950;48.154;16.316;2023-05-17T04:58:37;10.00;99.90
48162;DHT22;33950;48.154;16.316;2023-05-17T05:01:23;10.00;99.90
48162;DHT22;33950;48.154;16.316;2023-05-17T05:04:11;10.10;99.90
48162;DHT22;33950;48.154;16.316;2023-05-17T05:06:57;10.20;99.90
48162;DHT22;33950;48.154;16.316;2023-05-17T05:09:43;10.20;99.90
48162;DHT22;33950;48.154;16.316;2023-05-17T05:12:29;10.20;99.90
48162;DHT22;33950;48.154;16.316;2023-05-17T05:15:15;10.20;99.90
48162;DHT22;33950;48.154;16.316;2023-05-17T05:18:01;10.20;99.90
48162;DHT22;33950;48.154;16.316;2023-05-17T05:20:49;10.10;99.90
48162;DHT22;33950;48.154;16.316;2023-05-17T05:23:35;9.80;99.90
48162;DHT22;33950;48.154;16.316;2023-05-17T05:26:21;9.90;99.90
48162;DHT22;33950;48.154;16.316;2023-05-17T05:29:07;10.00;99.90
48162;DHT22;33950;48.154;16.316;2023-05-17T05:31:53;9.90;99.90
48162;DHT22;33950;48.154;16.316;2023-05-17T05:34:39;10.00;99.90
48162;DHT22;33950;48.154;16.316;2023-05-17T05:37:27;9.90;99.90
48162;DHT22;33950;48.154;16.316;2023-05-17T05:40:13;9.90;99.90
48162;DHT22;33950;48.154;16.316;2023-05-17T05:42:59;9.90;99.90
48162;DHT22;33950;48.154;16.316;2023-05-17T05:45:45;9.90;99.90
48162;DHT22;33950;48.154;16.316;2023-05-17T05:48:32;10.00;99.90
48162;DHT22;33950;48.154;16.316;2023-05-17T05:51:18;10.00;99.90
48162;DHT22;33950;48.154;16.316;2023-05-17T05:54:05;10.00;99.90
48162;DHT22;33950;48.154;16.316;2023-05-17T05:56:51;10.00;99.90
48162;DHT22;33950;48.154;16.316;2023-05-17T05:59:38;9.90;99.90
48162;DHT22;33950;48.154;16.316;2023-05-17T06:02:24;9.90;99.90
48162;DHT22;33950;48.154;16.316;2023-05-17T06:05:11;10.00;99.90
48162;DHT22;33950;48.154;16.316;2023-05-17T06:07:57;10.00;99.90
48162;DHT22;33950;48.154;16.316;2023-05-17T06:10:45;10.00;99.90
48162;DHT22;33950;48.154;16.316;2023-05-17T06:13:31;9.90;99.90
48162;DHT22;33950;48.154;16.316;2023-05-17T06:16:17;9.90;99.90
48162;DHT22;33950;48.154;16.316;2023-05-17T06:19:03;10.00;99.90
48162;DHT22;33950;48.154;16.316;2023-05-17T06:21:49;10.00;99.90
48162;DHT22;33950;48.154;16.316;2023-05-17T06:24:35;9.90;99.90
48162;DHT22;33950;48.154;16.316;2023-05-17T06:27:23;10.00;99.90
48162;DHT22;33950;48.154;16.316;2023-05-17T06:30:10;10.00;99.90
48162;DHT22;33950;48.154;16.316;2023-05-17T06:32:56;10.10;99.90
48162;DHT22;33950;48.154;16.316;2023-05-17T06:35:42;10.00;99.90
48162;DHT22;33950;48.154;16.316;2023-05-17T06:38:28;10.00;99.90
48162;DHT22;33950;48.154;16.316;2023-05-17T06:41:14;10.00;99.90
48162;DHT22;33950;48.154;16.316;2023-05-17T06:44:02;10.10;99.90
48162;DHT22;33950;48.154;16.316;2023-05-17T06:46:48;10.20;99.90
48162;DHT22;33950;48.154;16.316;2023-05-17T06:49:34;10.20;99.90
48162;DHT22;33950;48.154;16.316;2023-05-17T06:52:20;10.30;99.90
48162;DHT22;33950;48.154;16.316;2023-05-17T06:55:07;10.30;99.90
48162;DHT22;33950;48.154;16.316;2023-05-17T06:57:54;10.30;99.90
48162;DHT22;33950;48.154;16.316;2023-05-17T07:00:41;10.30;99.90
48162;DHT22;33950;48.154;16.316;2023-05-17T07:03:27;10.30;99.90
48162;DHT22;33950;48.154;16.316;2023-05-17T07:06:13;10.20;99.90
48162;DHT22;33950;48.154;16.316;2023-05-17T07:08:59;10.10;99.90
48162;DHT22;33950;48.154;16.316;2023-05-17T07:11:46;10.10;99.90
48162;DHT22;33950;48.154;16.316;2023-05-17T07:14:32;10.10;99.90
48162;DHT22;33950;48.154;16.316;2023-05-17T07:17:20;10.00;99.90
48162;DHT22;33950;48.154;16.316;2023-05-17T07:20:07;10.00;99.90
48162;DHT22;33950;48.154;16.316;2023-05-17T07:22:53;10.00;99.90
48162;DHT22;33950;48.154;16.316;2023-05-17T07:25:39;10.00;99.90
48162;DHT22;33950;48.154;16.316;2023-05-17T07:28:27;10.00;99.90
48162;DHT22;33950;48.154;16.316;2023-05-17T07:31:14;10.00;99.90
48162;DHT22;33950;48.154;16.316;2023-05-17T07:34:02;10.00;99.90
48162;DHT22;33950;48.154;16.316;2023-05-17T07:36:48;9.90;99.90
48162;DHT22;33950;48.154;16.316;2023-05-17T07:39:34;9.90;99.90
48162;DHT22;33950;48.154;16.316;2023-05-17T07:42:20;9.80;99.90
48162;DHT22;33950;48.154;16.316;2023-05-17T07:45:07;9.80;99.90
48162;DHT22;33950;48.154;16.316;2023-05-17T07:47:53;9.90;99.90
48162;DHT22;33950;48.154;16.316;2023-05-17T07:50:41;9.90;99.90
48162;DHT22;33950;48.154;16.316;2023-05-17T07:53:28;10.00;99.90
48162;DHT22;33950;48.154;16.316;2023-05-17T07:56:14;9.90;99.90
48162;DHT22;33950;48.154;16.316;2023-05-17T07:59:00;9.80;99.90
48162;DHT22;33950;48.154;16.316;2023-05-17T08:01:47;10.00;99.90
48162;DHT22;33950;48.154;16.316;2023-05-17T08:04:33;10.00;99.90
48162;DHT22;33950;48.154;16.316;2023-05-17T08:07:20;10.10;99.90
48162;DHT22;33950;48.154;16.316;2023-05-17T08:10:07;10.10;99.90
48162;DHT22;33950;48.154;16.316;2023-05-17T08:12:53;10.10;99.90
48162;DHT22;33950;48.154;16.316;2023-05-17T08:15:39;10.10;99.90
48162;DHT22;33950;48.154;16.316;2023-05-17T08:18:25;10.00;99.90
48162;DHT22;33950;48.154;16.316;2023-05-17T08:21:11;9.90;99.90
48162;DHT22;33950;48.154;16.316;2023-05-17T08:23:59;9.90;99.90
48162;DHT22;33950;48.154;16.316;2023-05-17T08:26:45;9.80;99.90
48162;DHT22;33950;48.154;16.316;2023-05-17T08:29:31;9.80;99.90
48162;DHT22;33950;48.154;16.316;2023-05-17T08:32:17;9.90;99.90
48162;DHT22;33950;48.154;16.316;2023-05-17T08:35:04;9.80;99.90
48162;DHT22;33950;48.154;16.316;2023-05-17T08:37:50;9.80;99.90
48162;DHT22;33950;48.154;16.316;2023-05-17T08:40:38;9.80;99.90
48162;DHT22;33950;48.154;16.316;2023-05-17T08:43:24;9.80;99.90
48162;DHT22;33950;48.154;16.316;2023-05-17T08:46:11;9.80;99.90
48162;DHT22;33950;48.154;16.316;2023-05-17T08:48:58;9.80;99.90
48162;DHT22;33950;48.154;16.316;2023-05-17T08:51:48;9.80;99.90
48162;DHT22;33950;48.154;16.316;2023-05-17T08:54:35;9.80;99.90
48162;DHT22;33950;48.154;16.316;2023-05-17T08:57:23;9.80;99.90
48162;DHT22;33950;48.154;16.316;2023-05-17T09:00:15;9.80;99.90
48162;DHT22;33950;48.154;16.316;2023-05-17T09:03:04;10.00;99.90
48162;DHT22;33950;48.154;16.316;2023-05-17T09:05:51;10.00;99.90
48162;DHT22;33950;48.154;16.316;2023-05-17T09:08:38;10.00;99.90
48162;DHT22;33950;48.154;16.316;2023-05-17T09:11:25;10.00;99.90
48162;DHT22;33950;48.154;16.316;2023-05-17T09:14:15;10.00;99.90
48162;DHT22;33950;48.154;16.316;2023-05-17T09:17:04;9.90;99.90
48162;DHT22;33950;48.154;16.316;2023-05-17T09:19:51;9.90;99.90
48162;DHT22;33950;48.154;16.316;2023-05-17T09:22:37;9.90;99.90
48162;DHT22;33950;48.154;16.316;2023-05-17T09:25:23;9.90;99.90
48162;DHT22;33950;48.154;16.316;2023-05-17T09:28:09;10.00;99.90
48162;DHT22;33950;48.154;16.316;2023-05-17T09:31:04;10.00;99.90
48162;DHT22;33950;48.154;16.316;2023-05-17T09:33:51;9.90;99.90
48162;DHT22;33950;48.154;16.316;2023-05-17T09:36:41;10.10;99.90
48162;DHT22;33950;48.154;16.316;2023-05-17T09:39:28;10.10;99.90
48162;DHT22;33950;48.154;16.316;2023-05-17T09:42:16;10.00;99.90
48162;DHT22;33950;48.154;16.316;2023-05-17T09:45:03;9.90;99.90
48162;DHT22;33950;48.154;16.316;2023-05-17T09:47:51;9.90;99.90
48162;DHT22;33950;48.154;16.316;2023-05-17T09:50:42;10.00;99.90
48162;DHT22;33950;48.154;16.316;2023-05-17T09:53:30;10.00;99.90
48162;DHT22;33950;48.154;16.316;2023-05-17T09:56:16;10.00;99.90
48162;DHT22;33950;48.154;16.316;2023-05-17T09:59:10;9.90;99.90
48162;DHT22;33950;48.154;16.316;2023-05-17T10:01:58;9.90;99.90
48162;DHT22;33950;48.154;16.316;2023-05-17T10:04:48;10.20;99.90
48162;DHT22;33950;48.154;16.316;2023-05-17T10:07:36;9.90;99.90
48162;DHT22;33950;48.154;16.316;2023-05-17T10:10:22;9.90;99.90
48162;DHT22;33950;48.154;16.316;2023-05-17T10:13:10;10.00;99.90
48162;DHT22;33950;48.154;16.316;2023-05-17T10:15:59;10.10;99.90
48162;DHT22;33950;48.154;16.316;2023-05-17T10:18:46;10.10;99.90
48162;DHT22;33950;48.154;16.316;2023-05-17T10:21:33;10.10;99.90
48162;DHT22;33950;48.154;16.316;2023-05-17T10:24:20;10.10;99.90
48162;DHT22;33950;48.154;16.316;2023-05-17T10:27:08;10.00;99.90
48162;DHT22;33950;48.154;16.316;2023-05-17T10:29:55;9.60;99.90
48162;DHT22;33950;48.154;16.316;2023-05-17T10:32:43;10.00;99.90
48162;DHT22;33950;48.154;16.316;2023-05-17T10:35:30;10.10;99.90
48162;DHT22;33950;48.154;16.316;2023-05-17T10:38:19;10.30;99.90
48162;DHT22;33950;48.154;16.316;2023-05-17T10:41:06;10.20;99.90
48162;DHT22;33950;48.154;16.316;2023-05-17T10:43:53;10.10;99.90
48162;DHT22;33950;48.154;16.316;2023-05-17T10:46:50;10.00;99.90
48162;DHT22;33950;48.154;16.316;2023-05-17T10:49:36;10.10;99.90
48162;DHT22;33950;48.154;16.316;2023-05-17T10:52:24;10.20;99.90
48162;DHT22;33950;48.154;16.316;2023-05-17T10:55:12;10.30;99.90
48162;DHT22;33950;48.154;16.316;2023-05-17T10:58:14;10.30;99.90
48162;DHT22;33950;48.154;16.316;2023-05-17T11:01:52;10.30;99.90
48162;DHT22;33950;48.154;16.316;2023-05-17T11:04:40;9.80;99.90
48162;DHT22;33950;48.154;16.316;2023-05-17T11:07:27;10.30;99.90
48162;DHT22;33950;48.154;16.316;2023-05-17T11:10:18;10.10;99.90
48162;DHT22;33950;48.154;16.316;2023-05-17T11:13:21;10.00;99.90
48162;DHT22;33950;48.154;16.316;2023-05-17T11:16:14;10.00;99.90
48162;DHT22;33950;48.154;16.316;2023-05-17T11:19:09;9.80;99.90
48162;DHT22;33950;48.154;16.316;2023-05-17T11:21:55;11.00;99.90
48162;DHT22;33950;48.154;16.316;2023-05-17T11:24:43;9.90;99.90
48162;DHT22;33950;48.154;16.316;2023-05-17T11:27:38;10.00;99.90
48162;DHT22;33950;48.154;16.316;2023-05-17T11:30:31;9.80;99.90
48162;DHT22;33950;48.154;16.316;2023-05-17T11:33:17;9.90;99.90
48162;DHT22;33950;48.154;16.316;2023-05-17T11:36:13;9.80;99.90
48162;DHT22;33950;48.154;16.316;2023-05-17T11:39:10;9.80;99.90
48162;DHT22;33950;48.154;16.316;2023-05-17T11:41:57;9.90;99.90
48162;DHT22;33950;48.154;16.316;2023-05-17T11:44:44;9.90;99.90
48162;DHT22;33950;48.154;16.316;2023-05-17T11:47:31;9.90;99.90
48162;DHT22;33950;48.154;16.316;2023-05-17T11:50:18;9.90;99.90
48162;DHT22;33950;48.154;16.316;2023-05-17T11:53:05;9.90;99.90
48162;DHT22;33950;48.154;16.316;2023-05-17T11:55:51;9.80;99.90
48162;DHT22;33950;48.154;16.316;2023-05-17T11:58:38;9.80;99.90
48162;DHT22;33950;48.154;16.316;2023-05-17T12:01:25;9.90;99.90
48162;DHT22;33950;48.154;16.316;2023-05-17T12:04:11;9.90;99.90
48162;DHT22;33950;48.154;16.316;2023-05-17T12:06:58;10.00;99.90
48162;DHT22;33950;48.154;16.316;2023-05-17T12:09:44;9.90;99.90
48162;DHT22;33950;48.154;16.316;2023-05-17T12:12:30;9.90;99.90
48162;DHT22;33950;48.154;16.316;2023-05-17T12:15:18;9.90;99.90
48162;DHT22;33950;48.154;16.316;2023-05-17T12:18:05;10.00;99.90
48162;DHT22;33950;48.154;16.316;2023-05-17T12:20:55;10.00;99.90
48162;DHT22;33950;48.154;16.316;2023-05-17T12:23:43;10.00;99.90
48162;DHT22;33950;48.154;16.316;2023-05-17T12:26:30;10.00;99.90
48162;DHT22;33950;48.154;16.316;2023-05-17T12:29:18;10.00;99.90
48162;DHT22;33950;48.154;16.316;2023-05-17T12:32:08;10.00;99.90
48162;DHT22;33950;48.154;16.316;2023-05-17T12:34:56;10.00;99.90
48162;DHT22;33950;48.154;16.316;2023-05-17T12:37:42;9.90;99.90
48162;DHT22;33950;48.154;16.316;2023-05-17T12:40:28;9.90;99.90
48162;DHT22;33950;48.154;16.316;2023-05-17T12:43:15;10.00;99.90
48162;DHT22;33950;48.154;16.316;2023-05-17T12:46:11;9.90;99.90
48162;DHT22;33950;48.154;16.316;2023-05-17T12:49:04;9.90;99.90
48162;DHT22;33950;48.154;16.316;2023-05-17T12:51:54;9.90;99.90
48162;DHT22;33950;48.154;16.316;2023-05-17T12:54:41;9.90;99.90
48162;DHT22;33950;48.154;16.316;2023-05-17T12:57:27;9.90;99.90
48162;DHT22;33950;48.154;16.316;2023-05-17T13:00:15;9.90;99.90
48162;DHT22;33950;48.154;16.316;2023-05-17T13:03:01;10.00;99.90
48162;DHT22;33950;48.154;16.316;2023-05-17T13:05:57;10.10;99.90
48162;DHT22;33950;48.154;16.316;2023-05-17T13:08:57;10.20;99.90
48162;DHT22;33950;48.154;16.316;2023-05-17T13:11:49;10.20;99.90
48162;DHT22;33950;48.154;16.316;2023-05-17T13:14:40;10.20;99.90
48162;DHT22;33950;48.154;16.316;2023-05-17T13:17:34;10.20;99.90
48162;DHT22;33950;48.154;16.316;2023-05-17T13:20:38;9.10;99.90
48162;DHT22;33950;48.154;16.316;2023-05-17T13:23:24;10.00;99.90
48162;DHT22;33950;48.154;16.316;2023-05-17T13:26:11;10.00;99.90
48162;DHT22;33950;48.154;16.316;2023-05-17T13:29:01;10.10;99.90
48162;DHT22;33950;48.154;16.316;2023-05-17T13:31:47;10.10;99.90
48162;DHT22;33950;48.154;16.316;2023-05-17T13:34:42;10.10;99.90
48162;DHT22;33950;48.154;16.316;2023-05-17T13:37:31;10.00;99.90
48162;DHT22;33950;48.154;16.316;2023-05-17T13:40:23;10.10;99.90
48162;DHT22;33950;48.154;16.316;2023-05-17T13:43:10;10.20;99.90
48162;DHT22;33950;48.154;16.316;2023-05-17T13:46:00;10.20;99.90
48162;DHT22;33950;48.154;16.316;2023-05-17T13:48:46;10.20;99.90
48162;DHT22;33950;48.154;16.316;2023-05-17T13:51:32;10.20;99.90
48162;DHT22;33950;48.154;16.316;2023-05-17T13:54:22;10.20;99.90
48162;DHT22;33950;48.154;16.316;2023-05-17T13:57:11;10.10;99.90
48162;DHT22;33950;48.154;16.316;2023-05-17T14:00:02;10.00;99.90
48162;DHT22;33950;48.154;16.316;2023-05-17T14:02:48;10.00;99.90
48162;DHT22;33950;48.154;16.316;2023-05-17T14:05:35;10.00;99.90
48162;DHT22;33950;48.154;16.316;2023-05-17T14:08:21;9.90;99.90
48162;DHT22;33950;48.154;16.316;2023-05-17T14:11:07;10.00;99.90
48162;DHT22;33950;48.154;16.316;2023-05-17T14:13:53;10.00;99.90
48162;DHT22;33950;48.154;16.316;2023-05-17T14:16:41;10.00;99.90
48162;DHT22;33950;48.154;16.316;2023-05-17T14:19:27;9.90;99.90
48162;DHT22;33950;48.154;16.316;2023-05-17T14:22:13;9.90;99.90
48162;DHT22;33950;48.154;16.316;2023-05-17T14:24:59;9.90;99.90
48162;DHT22;33950;48.154;16.316;2023-05-17T14:27:45;9.90;99.90
48162;DHT22;33950;48.154;16.316;2023-05-17T14:30:31;9.90;99.90
48162;DHT22;33950;48.154;16.316;2023-05-17T14:33:19;9.90;99.90
48162;DHT22;33950;48.154;16.316;2023-05-17T14:36:06;10.00;99.90
48162;DHT22;33950;48.154;16.316;2023-05-17T14:38:52;10.10;99.90
48162;DHT22;33950;48.154;16.316;2023-05-17T14:41:38;10.10;99.90
48162;DHT22;33950;48.154;16.316;2023-05-17T14:44:24;10.10;99.90
48162;DHT22;33950;48.154;16.316;2023-05-17T14:47:11;10.10;99.90
48162;DHT22;33950;48.154;16.316;2023-05-17T14:49:59;10.10;99.90
48162;DHT22;33950;48.154;16.316;2023-05-17T14:52:46;10.10;99.90
48162;DHT22;33950;48.154;16.316;2023-05-17T14:55:32;10.10;99.90
48162;DHT22;33950;48.154;16.316;2023-05-17T14:58:18;10.10;99.90
48162;DHT22;33950;48.154;16.316;2023-05-17T15:01:05;10.20;99.90
48162;DHT22;33950;48.154;16.316;2023-05-17T15:03:51;10.10;99.90
48162;DHT22;33950;48.154;16.316;2023-05-17T15:06:39;10.10;99.90
48162;DHT22;33950;48.154;16.316;2023-05-17T15:09:25;10.00;99.90
48162;DHT22;33950;48.154;16.316;2023-05-17T15:12:12;10.00;99.90
48162;DHT22;33950;48.154;16.316;2023-05-17T15:14:58;10.00;99.90
48162;DHT22;33950;48.154;16.316;2023-05-17T15:17:45;10.00;99.90
48162;DHT22;33950;48.154;16.316;2023-05-17T15:20:31;10.00;99.90
48162;DHT22;33950;48.154;16.316;2023-05-17T15:23:19;10.00;99.90
48162;DHT22;33950;48.154;16.316;2023-05-17T15:26:05;10.10;99.90
48162;DHT22;33950;48.154;16.316;2023-05-17T15:28:51;10.10;99.90
48162;DHT22;33950;48.154;16.316;2023-05-17T15:31:37;10.10;99.90
48162;DHT22;33950;48.154;16.316;2023-05-17T15:34:24;10.20;99.90
48162;DHT22;33950;48.154;16.316;2023-05-17T15:37:11;10.20;99.90
48162;DHT22;33950;48.154;16.316;2023-05-17T15:40:05;10.20;99.90
48162;DHT22;33950;48.154;16.316;2023-05-17T15:42:52;10.20;99.90
48162;DHT22;33950;48.154;16.316;2023-05-17T15:45:38;10.20;99.90
48162;DHT22;33950;48.154;16.316;2023-05-17T15:48:24;10.20;99.90
48162;DHT22;33950;48.154;16.316;2023-05-17T15:51:13;10.20;99.90
48162;DHT22;33950;48.154;16.316;2023-05-17T15:53:59;10.20;99.90
48162;DHT22;33950;48.154;16.316;2023-05-17T15:56:47;10.10;99.90
48162;DHT22;33950;48.154;16.316;2023-05-17T15:59:33;10.10;99.90
48162;DHT22;33950;48.154;16.316;2023-05-17T16:02:20;10.00;99.90
48162;DHT22;33950;48.154;16.316;2023-05-17T16:05:06;10.00;99.90
48162;DHT22;33950;48.154;16.316;2023-05-17T16:07:53;10.10;99.90
48162;DHT22;33950;48.154;16.316;2023-05-17T16:10:39;10.20;99.90
48162;DHT22;33950;48.154;16.316;2023-05-17T16:13:26;10.20;99.90
48162;DHT22;33950;48.154;16.316;2023-05-17T16:16:13;10.10;99.90
48162;DHT22;33950;48.154;16.316;2023-05-17T16:19:00;10.00;99.90
48162;DHT22;33950;48.154;16.316;2023-05-17T16:21:46;10.00;99.90
48162;DHT22;33950;48.154;16.316;2023-05-17T16:24:32;10.00;99.90
48162;DHT22;33950;48.154;16.316;2023-05-17T16:27:18;10.10;99.90
48162;DHT22;33950;48.154;16.316;2023-05-17T16:30:07;10.20;99.90
48162;DHT22;33950;48.154;16.316;2023-05-17T16:32:53;10.20;99.90
48162;DHT22;33950;48.154;16.316;2023-05-17T16:35:39;10.20;99.90
48162;DHT22;33950;48.154;16.316;2023-05-17T16:38:25;10.20;99.90
48162;DHT22;33950;48.154;16.316;2023-05-17T16:41:11;10.10;99.90
48162;DHT22;33950;48.154;16.316;2023-05-17T16:43:58;10.20;99.90
48162;DHT22;33950;48.154;16.316;2023-05-17T16:46:45;10.10;99.90
48162;DHT22;33950;48.154;16.316;2023-05-17T16:49:31;10.10;99.90
48162;DHT22;33950;48.154;16.316;2023-05-17T16:52:17;10.20;99.90
48162;DHT22;33950;48.154;16.316;2023-05-17T16:55:04;10.20;99.90
48162;DHT22;33950;48.154;16.316;2023-05-17T16:57:50;10.10;99.90
48162;DHT22;33950;48.154;16.316;2023-05-17T17:00:36;10.10;99.90
48162;DHT22;33950;48.154;16.316;2023-05-17T17:03:24;10.20;99.90
48162;DHT22;33950;48.154;16.316;2023-05-17T17:06:10;10.10;99.90
48162;DHT22;33950;48.154;16.316;2023-05-17T17:08:56;10.10;99.90
48162;DHT22;33950;48.154;16.316;2023-05-17T17:11:42;10.20;99.90
48162;DHT22;33950;48.154;16.316;2023-05-17T17:14:28;10.10;99.90
48162;DHT22;33950;48.154;16.316;2023-05-17T17:17:15;10.10;99.90
48162;DHT22;33950;48.154;16.316;2023-05-17T17:20:03;10.10;99.90
48162;DHT22;33950;48.154;16.316;2023-05-17T17:22:50;10.20;99.90
48162;DHT22;33950;48.154;16.316;2023-05-17T17:25:36;10.20;99.90
48162;DHT22;33950;48.154;16.316;2023-05-17T17:28:23;10.10;99.90
48162;DHT22;33950;48.154;16.316;2023-05-17T17:31:09;10.10;99.90